createdAt,value
2023-02-02T00:00:53.903Z,100746.59
2023-02-02T00:03:39.502Z,100740.00
2023-02-02T00:06:26.739Z,100753.19
2023-02-02T00:09:19.493Z,100766.78
2023-02-02T00:12:05.128Z,100773.72
2023-02-02T00:14:50.406Z,100775.41
2023-02-02T00:17:36.091Z,100759.91
2023-02-02T00:20:22.533Z,100774.91
2023-02-02T00:23:08.111Z,100780.25
2023-02-02T00:25:53.523Z,100778.63
2023-02-02T00:28:39.104Z,100779.47
2023-02-02T00:31:24.595Z,100767.56
2023-02-02T00:34:14.520Z,100760.94
2023-02-02T00:37:00.102Z,100776.72
2023-02-02T00:39:45.415Z,100772.25
2023-02-02T00:42:31.025Z,100779.13
2023-02-02T00:45:16.886Z,100790.94
2023-02-02T00:48:03.160Z,100793.84
2023-02-02T00:50:48.351Z,100802.34
2023-02-02T00:53:33.845Z,100806.59
2023-02-02T00:56:19.276Z,100814.38
2023-02-02T00:59:04.791Z,100830.16
2023-02-02T01:01:50.378Z,100829.97
2023-02-02T01:04:35.836Z,100824.25
2023-02-02T01:07:21.196Z,100837.50
2023-02-02T01:10:10.792Z,100835.13
2023-02-02T01:12:56.534Z,100845.47
2023-02-02T01:15:41.991Z,100847.03
2023-02-02T01:18:27.612Z,100851.31
2023-02-02T01:21:12.911Z,100842.09
2023-02-02T01:23:58.427Z,100851.63
2023-02-02T01:26:44.033Z,100860.06
2023-02-02T01:29:29.545Z,100853.97
2023-02-02T01:32:15.452Z,100864.97
2023-02-02T01:35:00.784Z,100865.00
2023-02-02T01:37:46.184Z,100865.91
2023-02-02T01:40:31.521Z,100872.78
2023-02-02T01:43:25.585Z,100864.91
2023-02-02T01:46:22.427Z,100875.16
2023-02-02T01:49:16.418Z,100876.16
2023-02-02T01:52:01.786Z,100866.91
2023-02-02T01:54:57.888Z,100879.88
2023-02-02T01:58:00.557Z,100899.59
2023-02-02T02:00:47.177Z,100897.09
2023-02-02T02:03:36.008Z,100895.16
2023-02-02T02:06:22.040Z,100901.06
2023-02-02T02:09:07.953Z,100898.56
2023-02-02T02:11:54.597Z,100903.63
2023-02-02T02:14:58.999Z,100900.34
2023-02-02T02:17:55.458Z,100914.97
2023-02-02T02:21:33.176Z,100919.31
2023-02-02T02:24:49.471Z,100922.69
2023-02-02T02:28:01.012Z,100914.03
2023-02-02T02:31:20.321Z,100920.00
2023-02-02T02:34:22.300Z,100915.97
2023-02-02T02:37:18.781Z,100925.00
2023-02-02T02:40:22.432Z,100936.19
2023-02-02T02:43:17.340Z,100937.88
2023-02-02T02:46:03.939Z,100940.44
2023-02-02T02:48:50.370Z,100954.16
2023-02-02T02:51:43.504Z,100943.84
2023-02-02T02:54:54.075Z,100960.28
2023-02-02T02:57:45.119Z,100958.34
2023-02-02T03:00:54.042Z,100964.50
2023-02-02T03:04:14.671Z,100952.25
2023-02-02T03:07:22.872Z,100954.78
2023-02-02T03:10:12.328Z,100964.22
2023-02-02T03:12:58.356Z,100957.34
2023-02-02T03:15:45.826Z,100961.63
2023-02-02T03:18:33.072Z,100957.16
2023-02-02T03:21:18.487Z,100967.56
2023-02-02T03:24:03.966Z,100966.00
2023-02-02T03:26:49.731Z,100979.91
2023-02-02T03:29:34.934Z,100986.81
2023-02-02T03:32:20.535Z,100976.50
2023-02-02T03:35:06.531Z,101001.41
2023-02-02T03:37:52.843Z,101005.69
2023-02-02T03:40:39.360Z,101011.13
2023-02-02T03:43:25.026Z,101002.41
2023-02-02T03:46:10.825Z,101003.38
2023-02-02T03:48:56.094Z,101012.72
2023-02-02T03:51:43.122Z,101018.75
2023-02-02T03:54:28.887Z,101024.03
2023-02-02T03:57:14.260Z,101041.41
2023-02-02T03:59:59.502Z,101030.31
2023-02-02T04:02:44.785Z,101057.44
2023-02-02T04:05:30.411Z,101060.00
2023-02-02T04:08:16.158Z,101053.09
2023-02-02T04:11:01.713Z,101057.44
2023-02-02T04:13:47.259Z,101072.28
2023-02-02T04:16:34.811Z,101068.84
2023-02-02T04:19:20.421Z,101054.28
2023-02-02T04:22:05.837Z,101069.72
2023-02-02T04:24:51.759Z,101067.09
2023-02-02T04:27:37.452Z,101084.50
2023-02-02T04:30:22.877Z,101084.56
2023-02-02T04:33:08.205Z,101081.97
2023-02-02T04:35:54.246Z,101094.06
2023-02-02T04:38:39.704Z,101098.31
2023-02-02T04:41:25.501Z,101098.44
2023-02-02T04:44:15.396Z,101091.53
2023-02-02T04:47:01.053Z,101101.84
2023-02-02T04:49:46.678Z,101111.34
2023-02-02T04:52:32.408Z,101113.91
2023-02-02T04:55:17.845Z,101105.28
2023-02-02T04:58:03.338Z,101105.50
2023-02-02T05:00:48.797Z,101103.94
2023-02-02T05:03:34.222Z,101106.88
2023-02-02T05:06:19.883Z,101104.50
2023-02-02T05:09:05.348Z,101110.34
2023-02-02T05:11:51.203Z,101106.97
2023-02-02T05:14:36.932Z,101120.53
2023-02-02T05:17:22.290Z,101117.97
2023-02-02T05:20:08.942Z,101120.63
2023-02-02T05:22:54.266Z,101110.28
2023-02-02T05:25:39.662Z,101114.66
2023-02-02T05:28:25.314Z,101131.28
2023-02-02T05:31:10.845Z,101148.38
2023-02-02T05:33:56.330Z,101139.59
2023-02-02T05:36:41.582Z,101129.00
2023-02-02T05:39:27.053Z,101141.44
2023-02-02T05:42:12.584Z,101138.25
2023-02-02T05:44:57.918Z,101146.72
2023-02-02T05:47:43.440Z,101158.72
2023-02-02T05:50:28.680Z,101164.66
2023-02-02T05:53:14.423Z,101162.75
2023-02-02T05:55:59.683Z,101176.03
2023-02-02T05:58:47.205Z,101165.22
2023-02-02T06:01:32.736Z,101170.50
2023-02-02T06:04:18.152Z,101179.00
2023-02-02T06:07:03.702Z,101182.34
2023-02-02T06:09:49.448Z,101180.50
2023-02-02T06:12:35.081Z,101187.28
2023-02-02T06:15:20.882Z,101173.63
2023-02-02T06:18:08.181Z,101180.56
2023-02-02T06:20:58.456Z,101191.81
2023-02-02T06:23:45.757Z,101200.53
2023-02-02T06:26:31.114Z,101196.41
2023-02-02T06:29:16.678Z,101192.09
2023-02-02T06:32:03.393Z,101213.53
2023-02-02T06:34:48.827Z,101207.41
2023-02-02T06:37:34.427Z,101210.91
2023-02-02T06:40:20.163Z,101215.38
2023-02-02T06:43:15.025Z,101220.47
2023-02-02T06:46:00.888Z,101241.78
2023-02-02T06:48:46.684Z,101234.81
2023-02-02T06:51:32.454Z,101227.00
2023-02-02T06:54:17.999Z,101225.22
2023-02-02T06:57:03.659Z,101240.94
2023-02-02T06:59:50.545Z,101246.84
2023-02-02T07:02:36.135Z,101234.97
2023-02-02T07:05:24.166Z,101254.72
2023-02-02T07:08:10.142Z,101251.94
2023-02-02T07:11:14.446Z,101254.59
2023-02-02T07:14:00.917Z,101253.81
2023-02-02T07:16:46.581Z,101258.81
2023-02-02T07:19:32.161Z,101269.13
2023-02-02T07:22:17.883Z,101258.91
2023-02-02T07:25:03.516Z,101277.97
2023-02-02T07:27:53.079Z,101291.03
2023-02-02T07:30:38.647Z,101298.00
2023-02-02T07:33:23.945Z,101292.88
2023-02-02T07:36:11.370Z,101303.94
2023-02-02T07:39:02.282Z,101303.50
2023-02-02T07:41:47.745Z,101308.31
2023-02-02T07:44:33.134Z,101306.47
2023-02-02T07:47:18.883Z,101326.34
2023-02-02T07:50:04.324Z,101323.41
2023-02-02T07:52:49.720Z,101332.03
2023-02-02T07:55:35.255Z,101332.41
2023-02-02T07:58:20.862Z,101325.75
2023-02-02T08:01:09.093Z,101328.59
2023-02-02T08:03:56.661Z,101338.94
2023-02-02T08:06:41.986Z,101342.38
2023-02-02T08:09:27.637Z,101343.47
2023-02-02T08:12:13.451Z,101357.16
2023-02-02T08:14:59.032Z,101360.72
2023-02-02T08:17:46.474Z,101364.69
2023-02-02T08:20:31.922Z,101362.84
2023-02-02T08:23:18.564Z,101380.69
2023-02-02T08:26:11.520Z,101387.56
2023-02-02T08:29:03.559Z,101376.06
2023-02-02T08:31:49.021Z,101381.81
2023-02-02T08:34:36.817Z,101376.69
2023-02-02T08:37:22.459Z,101387.81
2023-02-02T08:40:09.250Z,101389.44
2023-02-02T08:42:55.161Z,101387.03
2023-02-02T08:46:01.857Z,101391.19
2023-02-02T08:48:49.046Z,101411.50
2023-02-02T08:51:34.705Z,101411.13
2023-02-02T08:54:20.151Z,101418.50
2023-02-02T08:57:05.756Z,101417.50
2023-02-02T08:59:51.416Z,101417.81
2023-02-02T09:02:36.733Z,101423.81
2023-02-02T09:05:22.553Z,101416.25
2023-02-02T09:08:08.078Z,101421.69
2023-02-02T09:10:53.809Z,101434.94
2023-02-02T09:13:40.792Z,101436.56
2023-02-02T09:16:27.096Z,101446.84
2023-02-02T09:19:12.872Z,101450.84
2023-02-02T09:21:58.503Z,101456.75
2023-02-02T09:24:43.731Z,101449.31
2023-02-02T09:27:29.215Z,101461.41
2023-02-02T09:30:14.892Z,101461.28
2023-02-02T09:33:00.581Z,101461.34
2023-02-02T09:35:46.196Z,101458.13
2023-02-02T09:38:31.909Z,101475.28
2023-02-02T09:41:42.102Z,101472.84
2023-02-02T09:44:50.898Z,101475.84
2023-02-02T09:47:53.537Z,101472.31
2023-02-02T09:50:58.826Z,101472.38
2023-02-02T09:53:55.638Z,101481.03
2023-02-02T09:56:45.045Z,101483.66
2023-02-02T09:59:37.154Z,101489.91
2023-02-02T10:02:38.643Z,101503.16
2023-02-02T10:05:29.755Z,101490.75
2023-02-02T10:08:34.379Z,101496.16
2023-02-02T10:11:30.716Z,101496.88
2023-02-02T10:14:30.736Z,101501.06
2023-02-02T10:17:45.184Z,101507.19
2023-02-02T10:21:02.098Z,101510.56
2023-02-02T10:23:47.964Z,101511.44
2023-02-02T10:26:39.584Z,101518.56
2023-02-02T10:29:48.176Z,101509.94
2023-02-02T10:32:39.373Z,101522.22
2023-02-02T10:35:45.044Z,101517.31
2023-02-02T10:38:46.333Z,101522.69
2023-02-02T10:41:37.676Z,101524.41
2023-02-02T10:44:25.714Z,101533.44
2023-02-02T10:47:16.456Z,101529.38
2023-02-02T10:50:22.472Z,101546.22
2023-02-02T10:53:14.285Z,101561.19
2023-02-02T10:56:06.867Z,101563.28
2023-02-02T10:59:07.742Z,101576.75
2023-02-02T11:01:53.433Z,101565.13
2023-02-02T11:04:58.056Z,101563.25
2023-02-02T11:07:43.530Z,101556.16
2023-02-02T11:10:28.968Z,101571.22
2023-02-02T11:13:26.485Z,101570.22
2023-02-02T11:16:14.823Z,101585.13
2023-02-02T11:19:00.801Z,101577.94
2023-02-02T11:21:56.204Z,101584.66
2023-02-02T11:24:47.229Z,101597.69
2023-02-02T11:27:40.836Z,101586.38
2023-02-02T11:30:29.237Z,101589.06
2023-02-02T11:33:37.436Z,101576.00
2023-02-02T11:36:22.787Z,101577.34
2023-02-02T11:39:16.796Z,101575.28
2023-02-02T11:42:07.384Z,101572.72
2023-02-02T11:44:56.908Z,101566.16
2023-02-02T11:47:43.776Z,101575.34
2023-02-02T11:50:29.572Z,101570.75
2023-02-02T11:53:26.651Z,101576.25
2023-02-02T11:56:25.408Z,101561.69
2023-02-02T11:59:31.799Z,101585.13
2023-02-02T12:02:19.948Z,101585.03
2023-02-02T12:05:11.485Z,101596.63
2023-02-02T12:07:56.761Z,101596.97
2023-02-02T12:10:49.287Z,101600.94
2023-02-02T12:13:52.288Z,101607.41
2023-02-02T12:17:20.549Z,101590.69
2023-02-02T12:20:31.803Z,101580.91
2023-02-02T12:23:40.486Z,101586.44
2023-02-02T12:26:31.613Z,101581.22
2023-02-02T12:29:33.481Z,101586.03
2023-02-02T12:32:33.893Z,101590.50
2023-02-02T12:35:22.018Z,101595.25
2023-02-02T12:38:20.643Z,101597.28
2023-02-02T12:41:27.691Z,101595.28
2023-02-02T12:44:21.994Z,101585.91
2023-02-02T12:47:44.493Z,101600.97
2023-02-02T12:51:01.270Z,101606.22
2023-02-02T12:54:33.311Z,101603.19
2023-02-02T12:57:24.686Z,101595.66
2023-02-02T13:00:56.347Z,101592.50
2023-02-02T13:04:04.801Z,101601.72
2023-02-02T13:07:38.211Z,101594.66
2023-02-02T13:10:36.457Z,101599.66
2023-02-02T13:13:31.278Z,101601.09
2023-02-02T13:16:16.884Z,101601.19
2023-02-02T13:19:10.265Z,101603.84
2023-02-02T13:21:58.364Z,101607.91
2023-02-02T13:24:48.163Z,101602.56
2023-02-02T13:27:33.624Z,101607.09
2023-02-02T13:30:32.414Z,101618.09
2023-02-02T13:33:24.684Z,101618.06
2023-02-02T13:36:19.293Z,101627.97
2023-02-02T13:39:19.726Z,101623.06
2023-02-02T13:42:16.731Z,101631.00
2023-02-02T13:45:15.813Z,101648.75
2023-02-02T13:48:30.151Z,101648.56
2023-02-02T13:51:35.369Z,101651.19
2023-02-02T13:54:47.256Z,101642.78
2023-02-02T13:57:41.585Z,101654.38
2023-02-02T14:00:33.385Z,101655.72
2023-02-02T14:03:38.627Z,101647.81
2023-02-02T14:06:26.799Z,101646.78
2023-02-02T14:09:18.776Z,101648.19
2023-02-02T14:12:07.951Z,101651.63
2023-02-02T14:14:53.651Z,101656.63
2023-02-02T14:17:39.171Z,101651.03
2023-02-02T14:20:44.685Z,101661.56
2023-02-02T14:23:51.111Z,101665.75
2023-02-02T14:26:44.604Z,101665.69
2023-02-02T14:29:31.384Z,101677.41
2023-02-02T14:32:28.985Z,101673.41
2023-02-02T14:35:14.939Z,101666.91
2023-02-02T14:38:21.752Z,101674.03
2023-02-02T14:41:44.937Z,101679.13
2023-02-02T14:44:30.746Z,101687.94
2023-02-02T14:47:48.096Z,101697.09
2023-02-02T14:50:39.611Z,101707.81
2023-02-02T14:53:34.391Z,101706.53
2023-02-02T14:56:22.426Z,101715.78
2023-02-02T14:59:24.120Z,101727.09
2023-02-02T15:02:19.982Z,101723.59
2023-02-02T15:05:38.729Z,101741.28
2023-02-02T15:08:26.796Z,101736.13
2023-02-02T15:11:31.884Z,101739.56
2023-02-02T15:14:19.970Z,101753.41
2023-02-02T15:17:07.120Z,101762.91
2023-02-02T15:20:07.926Z,101769.19
2023-02-02T15:23:19.193Z,101763.09
2023-02-02T15:26:17.448Z,101770.09
2023-02-02T15:29:07.821Z,101775.31
2023-02-02T15:31:55.575Z,101773.66
2023-02-02T15:34:46.765Z,101781.50
2023-02-02T15:37:44.899Z,101777.34
2023-02-02T15:40:32.215Z,101785.59
2023-02-02T15:43:18.152Z,101788.41
2023-02-02T15:46:10.867Z,101788.19
2023-02-02T15:49:33.925Z,101797.94
2023-02-02T15:52:27.626Z,101800.88
2023-02-02T15:55:25.177Z,101810.25
2023-02-02T15:58:31.598Z,101805.56
2023-02-02T16:01:22.440Z,101829.94
2023-02-02T16:04:08.462Z,101830.28
2023-02-02T16:06:55.518Z,101830.53
2023-02-02T16:09:41.786Z,101834.03
2023-02-02T16:12:27.473Z,101851.63
2023-02-02T16:15:20.422Z,101867.44
2023-02-02T16:18:13.281Z,101858.06
2023-02-02T16:21:02.104Z,101861.66
2023-02-02T16:23:48.253Z,101866.13
2023-02-02T16:26:35.461Z,101870.47
2023-02-02T16:29:22.028Z,101875.72
2023-02-02T16:32:22.287Z,101887.00
2023-02-02T16:35:35.708Z,101881.00
2023-02-02T16:38:33.572Z,101877.63
2023-02-02T16:41:36.333Z,101879.56
2023-02-02T16:44:38.761Z,101884.75
2023-02-02T16:47:27.313Z,101889.03
2023-02-02T16:50:27.206Z,101888.25
2023-02-02T16:53:22.889Z,101885.84
2023-02-02T16:56:09.881Z,101891.03
2023-02-02T16:58:58.437Z,101901.44
2023-02-02T17:01:49.638Z,101888.47
2023-02-02T17:04:35.323Z,101887.63
2023-02-02T17:07:21.812Z,101886.78
2023-02-02T17:10:26.024Z,101885.97
2023-02-02T17:13:30.015Z,101898.19
2023-02-02T17:16:19.080Z,101893.97
2023-02-02T17:19:04.552Z,101895.78
2023-02-02T17:21:50.176Z,101887.91
2023-02-02T17:24:35.968Z,101893.91
2023-02-02T17:27:32.665Z,101902.59
2023-02-02T17:30:19.843Z,101906.09
2023-02-02T17:33:09.138Z,101898.25
2023-02-02T17:35:56.267Z,101898.19
2023-02-02T17:38:41.957Z,101910.31
2023-02-02T17:41:27.705Z,101911.22
2023-02-02T17:44:13.408Z,101920.72
2023-02-02T17:46:59.006Z,101920.84
2023-02-02T17:49:44.351Z,101921.69
2023-02-02T17:52:30.099Z,101923.38
2023-02-02T17:55:21.384Z,101922.47
2023-02-02T17:58:06.746Z,101913.78
2023-02-02T18:00:56.137Z,101906.84
2023-02-02T18:03:44.860Z,101909.31
2023-02-02T18:06:30.256Z,101901.53
2023-02-02T18:09:15.780Z,101897.13
2023-02-02T18:12:01.270Z,101893.66
2023-02-02T18:14:47.021Z,101897.16
2023-02-02T18:17:34.049Z,101879.88
2023-02-02T18:20:20.509Z,101893.47
2023-02-02T18:23:05.872Z,101898.72
2023-02-02T18:25:52.770Z,101892.56
2023-02-02T18:28:38.630Z,101889.97
2023-02-02T18:31:24.526Z,101894.38
2023-02-02T18:34:10.043Z,101896.97
2023-02-02T18:36:55.577Z,101903.94
2023-02-02T18:39:40.957Z,101884.00
2023-02-02T18:42:32.116Z,101890.81
2023-02-02T18:45:17.763Z,101883.84
2023-02-02T18:48:03.522Z,101877.75
2023-02-02T18:50:48.841Z,101881.25
2023-02-02T18:53:34.703Z,101893.34
2023-02-02T18:56:20.052Z,101895.19
2023-02-02T18:59:06.710Z,101890.84
2023-02-02T19:01:52.192Z,101877.84
2023-02-02T19:04:37.773Z,101880.41
2023-02-02T19:07:41.706Z,101869.13
2023-02-02T19:10:27.988Z,101875.16
2023-02-02T19:13:19.291Z,101884.59
2023-02-02T19:16:14.375Z,101873.31
2023-02-02T19:19:22.040Z,101886.25
2023-02-02T19:22:17.466Z,101882.03
2023-02-02T19:25:11.289Z,101876.81
2023-02-02T19:27:58.355Z,101881.94
2023-02-02T19:30:45.211Z,101871.50
2023-02-02T19:33:39.510Z,101873.28
2023-02-02T19:36:27.816Z,101867.19
2023-02-02T19:39:18.462Z,101855.09
2023-02-02T19:42:10.243Z,101852.44
2023-02-02T19:44:56.515Z,101846.31
2023-02-02T19:47:44.484Z,101849.56
2023-02-02T19:50:38.752Z,101832.38
2023-02-02T19:53:28.385Z,101833.16
2023-02-02T19:56:37.722Z,101824.56
2023-02-02T19:59:25.368Z,101825.44
2023-02-02T20:02:38.197Z,101823.69
2023-02-02T20:05:28.166Z,101822.78
2023-02-02T20:08:28.138Z,101818.41
2023-02-02T20:11:40.795Z,101820.94
2023-02-02T20:14:33.109Z,101810.59
2023-02-02T20:17:32.741Z,101817.41
2023-02-02T20:20:32.376Z,101824.41
2023-02-02T20:23:33.595Z,101805.44
2023-02-02T20:26:28.826Z,101815.66
2023-02-02T20:29:19.174Z,101809.66
2023-02-02T20:32:08.221Z,101818.31
2023-02-02T20:34:56.887Z,101819.09
2023-02-02T20:37:42.717Z,101809.59
2023-02-02T20:40:29.910Z,101809.66
2023-02-02T20:43:16.006Z,101807.88
2023-02-02T20:46:01.441Z,101811.34
2023-02-02T20:48:48.124Z,101811.38
2023-02-02T20:51:33.605Z,101804.38
2023-02-02T20:54:19.672Z,101804.41
2023-02-02T20:57:05.676Z,101820.19
2023-02-02T20:59:57.359Z,101803.69
2023-02-02T21:02:42.983Z,101800.28
2023-02-02T21:05:28.451Z,101809.00
2023-02-02T21:08:13.984Z,101805.53
2023-02-02T21:10:59.972Z,101789.16
2023-02-02T21:13:45.547Z,101790.06
2023-02-02T21:16:30.819Z,101788.34
2023-02-02T21:19:16.510Z,101783.16
2023-02-02T21:22:02.146Z,101780.59
2023-02-02T21:24:47.943Z,101779.75
2023-02-02T21:27:33.696Z,101770.38
2023-02-02T21:30:19.121Z,101777.22
2023-02-02T21:33:05.946Z,101772.88
2023-02-02T21:35:51.467Z,101760.84
2023-02-02T21:38:36.842Z,101762.56
2023-02-02T21:41:22.273Z,101741.81
2023-02-02T21:44:16.050Z,101746.13
2023-02-02T21:47:01.688Z,101750.47
2023-02-02T21:49:47.476Z,101757.53
2023-02-02T21:52:33.906Z,101765.28
2023-02-02T21:55:35.390Z,101760.88
2023-02-02T21:58:25.562Z,101760.09
2023-02-02T22:01:33.094Z,101769.66
2023-02-02T22:04:22.542Z,101759.25
2023-02-02T22:07:15.014Z,101754.88
2023-02-02T22:10:00.587Z,101748.00
2023-02-02T22:12:46.340Z,101739.34
2023-02-02T22:15:34.395Z,101744.53
2023-02-02T22:18:21.925Z,101742.03
2023-02-02T22:21:07.494Z,101716.97
2023-02-02T22:23:53.175Z,101731.59
2023-02-02T22:26:38.657Z,101726.41
2023-02-02T22:29:24.625Z,101723.84
2023-02-02T22:32:10.285Z,101714.28
2023-02-02T22:34:55.762Z,101694.41
2023-02-02T22:37:41.403Z,101703.09
2023-02-02T22:40:28.623Z,101702.22
2023-02-02T22:43:16.190Z,101666.91
2023-02-02T22:46:01.812Z,101687.56
2023-02-02T22:48:47.336Z,101670.28
2023-02-02T22:51:32.951Z,101661.63
2023-02-02T22:54:18.810Z,101655.53
2023-02-02T22:57:04.087Z,101645.25
2023-02-02T22:59:49.889Z,101640.09
2023-02-02T23:02:35.781Z,101632.28
2023-02-02T23:05:22.674Z,101622.88
2023-02-02T23:08:08.377Z,101621.13
2023-02-02T23:10:53.822Z,101619.38
2023-02-02T23:13:39.420Z,101608.09
2023-02-02T23:16:25.289Z,101618.41
2023-02-02T23:19:10.986Z,101609.78
2023-02-02T23:21:56.690Z,101610.56
2023-02-02T23:24:41.989Z,101594.06
2023-02-02T23:27:27.688Z,101589.00
2023-02-02T23:30:14.522Z,101587.19
2023-02-02T23:33:00.114Z,101582.06
2023-02-02T23:35:45.640Z,101576.00
2023-02-02T23:38:31.400Z,101574.31
2023-02-02T23:41:16.613Z,101557.88
2023-02-02T23:44:02.425Z,101550.88
2023-02-02T23:46:48.742Z,101535.41
2023-02-02T23:49:34.755Z,101543.13
2023-02-02T23:52:20.433Z,101536.09
2023-02-02T23:55:07.104Z,101531.84
2023-02-02T23:57:52.798Z,101523.16
